createdAt,value
2023-03-26T00:02:12.314Z,1.10
2023-03-26T00:04:42.646Z,1.17
2023-03-26T00:07:13.701Z,1.10
2023-03-26T00:09:42.134Z,1.17
2023-03-26T00:12:12.701Z,1.17
2023-03-26T00:14:41.553Z,0.90
2023-03-26T00:17:09.980Z,1.00
2023-03-26T00:19:39.026Z,0.87
2023-03-26T00:22:08.006Z,1.10
2023-03-26T00:24:37.563Z,1.10
2023-03-26T00:27:05.981Z,1.20
2023-03-26T00:29:36.018Z,0.93
2023-03-26T00:32:04.616Z,1.20
2023-03-26T00:34:34.500Z,0.97
2023-03-26T00:37:03.578Z,1.50
2023-03-26T00:39:33.685Z,1.20
2023-03-26T00:42:06.908Z,0.93
2023-03-26T00:44:37.071Z,1.30
2023-03-26T00:47:05.620Z,1.03
2023-03-26T00:49:34.460Z,1.03
2023-03-26T00:52:03.693Z,1.03
2023-03-26T00:54:32.037Z,1.00
2023-03-26T00:57:00.652Z,1.20
2023-03-26T00:59:30.349Z,1.30
2023-03-26T01:02:00.288Z,0.93
2023-03-26T01:04:34.743Z,1.10
2023-03-26T01:07:13.420Z,0.90
2023-03-26T01:09:50.396Z,0.90
2023-03-26T01:12:25.595Z,1.00
2023-03-26T01:15:00.744Z,0.90
2023-03-26T01:17:34.302Z,0.90
2023-03-26T01:20:15.053Z,0.97
2023-03-26T01:22:51.118Z,1.00
2023-03-26T01:25:26.461Z,0.93
2023-03-26T01:27:57.588Z,1.07
2023-03-26T01:30:37.149Z,1.17
2023-03-26T01:33:16.379Z,1.40
2023-03-26T01:35:54.447Z,1.10
2023-03-26T01:38:36.913Z,1.03
2023-03-26T01:41:15.370Z,1.17
2023-03-26T01:43:52.425Z,1.20
2023-03-26T01:46:25.751Z,0.80
2023-03-26T01:48:55.550Z,0.60
2023-03-26T01:51:30.320Z,2.03
2023-03-26T01:54:00.949Z,0.80
2023-03-26T01:56:42.177Z,0.90
2023-03-26T01:59:40.651Z,1.00
2023-03-26T02:02:15.012Z,0.90
2023-03-26T02:04:54.388Z,0.87
2023-03-26T02:07:28.752Z,0.83
2023-03-26T02:10:05.596Z,1.00
2023-03-26T02:12:37.071Z,1.10
2023-03-26T02:15:08.248Z,1.03
2023-03-26T02:17:40.273Z,1.03
2023-03-26T02:20:11.615Z,0.90
2023-03-26T02:22:41.799Z,1.50
2023-03-26T02:25:14.611Z,1.10
2023-03-26T02:27:46.371Z,1.40
2023-03-26T02:30:19.765Z,1.27
2023-03-26T02:32:52.375Z,1.43
2023-03-26T02:35:23.833Z,1.30
2023-03-26T02:37:58.201Z,1.50
2023-03-26T02:40:27.207Z,1.37
2023-03-26T02:42:57.141Z,1.30
2023-03-26T02:45:26.159Z,1.67
2023-03-26T02:48:07.973Z,1.20
2023-03-26T02:50:59.527Z,1.30
2023-03-26T02:53:29.739Z,1.20
2023-03-26T02:56:15.426Z,1.30
2023-03-26T02:58:57.598Z,1.20
2023-03-26T03:01:26.195Z,1.30
2023-03-26T03:03:56.323Z,1.20
2023-03-26T03:06:44.748Z,1.50
2023-03-26T03:09:14.251Z,1.40
2023-03-26T03:12:03.243Z,1.43
2023-03-26T03:14:34.027Z,1.60
2023-03-26T03:17:02.679Z,1.30
2023-03-26T03:19:31.584Z,1.73
2023-03-26T03:22:00.578Z,1.57
2023-03-26T03:24:30.034Z,2.00
2023-03-26T03:26:59.844Z,1.50
2023-03-26T03:29:44.083Z,1.60
2023-03-26T03:32:32.707Z,1.60
2023-03-26T03:35:05.387Z,1.87
2023-03-26T03:37:33.855Z,2.50
2023-03-26T03:40:02.340Z,1.80
2023-03-26T03:42:34.205Z,1.60
2023-03-26T03:45:07.932Z,2.43
2023-03-26T03:47:45.489Z,2.47
2023-03-26T03:50:15.841Z,2.10
2023-03-26T03:52:59.141Z,2.27
2023-03-26T03:55:28.941Z,2.37
2023-03-26T03:57:58.352Z,2.53
2023-03-26T04:00:30.723Z,2.10
2023-03-26T04:03:33.358Z,2.00
2023-03-26T04:06:07.051Z,2.10
2023-03-26T04:08:35.655Z,2.40
2023-03-26T04:11:06.902Z,2.13
2023-03-26T04:14:05.024Z,2.73
2023-03-26T04:17:05.490Z,2.30
2023-03-26T04:19:36.742Z,2.33
2023-03-26T04:22:09.488Z,1.93
2023-03-26T04:24:48.808Z,2.07
2023-03-26T04:27:37.166Z,1.87
2023-03-26T04:30:38.324Z,2.23
2023-03-26T04:33:25.144Z,2.00
2023-03-26T04:35:56.916Z,2.10
2023-03-26T04:38:26.382Z,1.90
2023-03-26T04:41:01.213Z,2.00
2023-03-26T04:43:50.843Z,1.83
2023-03-26T04:46:47.445Z,2.00
2023-03-26T04:49:30.325Z,2.50
2023-03-26T04:51:58.883Z,2.30
2023-03-26T04:54:46.796Z,2.00
2023-03-26T04:57:24.778Z,2.97
2023-03-26T05:00:19.692Z,2.40
2023-03-26T05:02:57.865Z,1.90
2023-03-26T05:05:30.107Z,2.13
2023-03-26T05:08:01.013Z,2.10
2023-03-26T05:10:29.820Z,1.90
2023-03-26T05:13:06.895Z,2.10
2023-03-26T05:15:38.338Z,1.67
2023-03-26T05:18:32.556Z,1.70
2023-03-26T05:21:04.178Z,2.30
2023-03-26T05:23:34.070Z,1.80
2023-03-26T05:26:21.284Z,2.20
2023-03-26T05:28:50.331Z,2.40
2023-03-26T05:31:41.477Z,2.20
2023-03-26T05:34:10.247Z,2.07
2023-03-26T05:36:40.102Z,2.30
2023-03-26T05:39:27.754Z,2.30
2023-03-26T05:42:01.880Z,2.20
2023-03-26T05:44:41.757Z,2.10
2023-03-26T05:47:19.609Z,2.20
2023-03-26T05:49:49.094Z,2.00
2023-03-26T05:52:19.138Z,2.30
2023-03-26T05:55:18.442Z,2.40
2023-03-26T05:58:13.816Z,2.50
2023-03-26T06:01:17.229Z,2.00
2023-03-26T06:04:06.275Z,1.60
2023-03-26T06:06:40.584Z,1.80
2023-03-26T06:09:12.053Z,1.77
2023-03-26T06:11:42.087Z,1.63
2023-03-26T06:14:12.559Z,1.70
2023-03-26T06:16:52.902Z,1.97
2023-03-26T06:19:22.937Z,1.77
2023-03-26T06:21:57.014Z,1.73
2023-03-26T06:24:34.896Z,2.00
2023-03-26T06:27:23.123Z,1.93
2023-03-26T06:30:23.938Z,2.07
2023-03-26T06:33:02.791Z,1.87
2023-03-26T06:35:36.979Z,1.80
2023-03-26T06:38:07.811Z,2.00
2023-03-26T06:40:39.271Z,2.53
2023-03-26T06:43:23.896Z,2.40
2023-03-26T06:46:21.215Z,2.30
2023-03-26T06:48:55.777Z,2.60
2023-03-26T06:51:43.601Z,2.30
2023-03-26T06:54:20.562Z,1.90
2023-03-26T06:56:53.147Z,2.43
2023-03-26T06:59:40.573Z,2.50
2023-03-26T07:02:27.639Z,2.07
2023-03-26T07:05:15.636Z,1.77
2023-03-26T07:08:13.412Z,1.70
2023-03-26T07:11:04.396Z,1.70
2023-03-26T07:13:53.200Z,1.93
2023-03-26T07:16:48.005Z,1.93
2023-03-26T07:19:42.556Z,1.70
2023-03-26T07:22:20.864Z,1.80
2023-03-26T07:25:10.409Z,1.87
2023-03-26T07:28:25.754Z,1.93
2023-03-26T07:31:34.772Z,1.97
2023-03-26T07:34:41.938Z,2.10
2023-03-26T07:37:45.124Z,1.80
2023-03-26T07:40:54.483Z,2.23
2023-03-26T07:43:55.703Z,2.10
2023-03-26T07:46:48.082Z,2.00
2023-03-26T07:49:37.656Z,2.10
2023-03-26T07:52:28.390Z,2.20
2023-03-26T07:55:22.395Z,2.00
2023-03-26T07:58:28.787Z,2.40
2023-03-26T08:01:38.540Z,1.87
2023-03-26T08:04:43.791Z,2.33
2023-03-26T08:07:53.913Z,2.27
2023-03-26T08:10:32.844Z,2.03
2023-03-26T08:13:24.470Z,2.30
2023-03-26T08:16:05.836Z,2.23
2023-03-26T08:18:49.001Z,2.90
2023-03-26T08:21:25.565Z,2.63
2023-03-26T08:24:07.297Z,2.23
2023-03-26T08:26:49.062Z,2.80
2023-03-26T08:29:32.808Z,2.97
2023-03-26T08:32:05.250Z,3.10
2023-03-26T08:34:33.588Z,2.93
2023-03-26T08:37:04.604Z,3.20
2023-03-26T08:39:33.298Z,3.23
2023-03-26T08:42:47.143Z,3.60
2023-03-26T08:45:59.587Z,3.70
2023-03-26T08:49:21.927Z,3.60
2023-03-26T08:52:58.389Z,3.80
2023-03-26T08:55:44.355Z,3.80
2023-03-26T08:59:21.533Z,4.20
2023-03-26T09:02:31.657Z,4.17
2023-03-26T09:05:53.126Z,4.50
2023-03-26T09:09:42.905Z,5.00
2023-03-26T09:13:30.495Z,4.80
2023-03-26T09:16:24.548Z,4.60
2023-03-26T09:19:41.488Z,5.53
2023-03-26T09:23:07.939Z,4.80
2023-03-26T09:26:30.876Z,4.50
2023-03-26T09:30:05.601Z,4.67
2023-03-26T09:33:32.728Z,3.80
2023-03-26T09:36:42.067Z,3.57
2023-03-26T09:39:37.522Z,3.53
2023-03-26T09:42:19.312Z,3.10
2023-03-26T09:45:46.906Z,2.87
2023-03-26T09:48:48.561Z,2.83
2023-03-26T09:51:40.932Z,2.33
2023-03-26T09:54:46.504Z,2.20
2023-03-26T09:57:39.865Z,3.53
2023-03-26T10:00:26.514Z,2.50
2023-03-26T10:03:22.221Z,4.00
2023-03-26T10:06:09.840Z,2.70
2023-03-26T10:09:08.288Z,3.60
2023-03-26T10:12:03.831Z,3.50
2023-03-26T10:14:43.769Z,10.70
2023-03-26T10:17:39.829Z,11.97
2023-03-26T10:20:44.417Z,7.07
2023-03-26T10:23:52.956Z,11.47
2023-03-26T10:27:09.873Z,12.73
2023-03-26T10:30:24.715Z,11.93
2023-03-26T10:33:09.392Z,6.63
2023-03-26T10:36:03.293Z,3.70
2023-03-26T10:39:02.559Z,3.47
2023-03-26T10:41:50.891Z,7.10
2023-03-26T10:44:49.516Z,4.30
2023-03-26T10:48:04.053Z,3.50
2023-03-26T10:50:55.295Z,2.47
2023-03-26T10:53:41.359Z,3.37
2023-03-26T10:56:23.055Z,2.77
2023-03-26T10:58:52.570Z,3.20
2023-03-26T11:01:37.865Z,3.20
2023-03-26T11:04:35.733Z,3.30
2023-03-26T11:07:17.801Z,2.43
2023-03-26T11:09:55.876Z,3.33
2023-03-26T11:12:34.299Z,2.63
2023-03-26T11:15:22.736Z,2.87
2023-03-26T11:18:06.726Z,2.70
2023-03-26T11:20:46.264Z,2.33
2023-03-26T11:23:35.842Z,2.80
2023-03-26T11:26:14.685Z,2.57
2023-03-26T11:29:31.750Z,2.87
2023-03-26T11:32:06.752Z,2.60
2023-03-26T11:34:41.689Z,3.20
2023-03-26T11:37:21.668Z,2.50
2023-03-26T11:39:56.920Z,1.83
2023-03-26T11:42:26.598Z,2.37
2023-03-26T11:45:00.112Z,1.83
2023-03-26T11:47:38.863Z,3.10
2023-03-26T11:50:16.858Z,3.97
2023-03-26T11:52:47.189Z,2.70
2023-03-26T11:55:16.297Z,2.23
2023-03-26T11:57:53.724Z,2.53
2023-03-26T12:00:27.513Z,2.30
2023-03-26T12:03:00.047Z,2.37
2023-03-26T12:05:36.734Z,2.00
2023-03-26T12:08:28.302Z,2.53
2023-03-26T12:11:09.339Z,2.47
2023-03-26T12:13:42.895Z,2.47
2023-03-26T12:16:16.654Z,2.60
2023-03-26T12:18:47.558Z,2.50
2023-03-26T12:21:18.880Z,2.60
2023-03-26T12:24:01.073Z,2.57
2023-03-26T12:26:41.414Z,5.33
2023-03-26T12:29:14.578Z,5.27
2023-03-26T12:31:54.094Z,4.47
2023-03-26T12:34:29.419Z,3.20
2023-03-26T12:37:00.958Z,2.83
2023-03-26T12:40:10.129Z,2.57
2023-03-26T12:44:50.754Z,2.43
2023-03-26T12:45:31.648Z,6.00
2023-03-26T12:48:03.733Z,4.37
2023-03-26T12:50:51.190Z,8.70
2023-03-26T12:53:39.689Z,2.40
2023-03-26T12:56:21.936Z,2.03
2023-03-26T12:59:25.667Z,1.60
2023-03-26T13:02:21.858Z,2.00
2023-03-26T13:05:15.655Z,1.77
2023-03-26T13:08:17.138Z,1.40
2023-03-26T13:11:01.518Z,1.90
2023-03-26T13:14:13.140Z,1.80
2023-03-26T13:16:52.400Z,1.30
2023-03-26T13:19:29.926Z,1.63
2023-03-26T13:22:16.286Z,1.80
2023-03-26T13:24:59.186Z,3.50
2023-03-26T13:27:42.800Z,3.10
2023-03-26T13:30:29.012Z,1.33
2023-03-26T13:33:22.619Z,2.40
2023-03-26T13:36:10.250Z,2.20
2023-03-26T13:39:05.099Z,2.70
2023-03-26T13:41:55.741Z,2.10
2023-03-26T13:44:38.702Z,2.20
2023-03-26T13:47:14.482Z,2.93
2023-03-26T13:49:49.991Z,1.80
2023-03-26T13:52:24.176Z,1.50
2023-03-26T13:55:20.810Z,1.57
2023-03-26T13:57:59.953Z,1.80
2023-03-26T14:00:43.396Z,1.90
2023-03-26T14:03:26.670Z,1.40
2023-03-26T14:06:01.106Z,1.40
2023-03-26T14:08:37.418Z,1.20
2023-03-26T14:11:12.832Z,1.93
2023-03-26T14:13:48.758Z,0.90
2023-03-26T14:16:24.996Z,1.10
2023-03-26T14:19:04.648Z,1.10
2023-03-26T14:22:03.591Z,1.00
2023-03-26T14:25:08.690Z,1.07
2023-03-26T14:27:59.708Z,1.27
2023-03-26T14:31:04.070Z,0.80
2023-03-26T14:34:02.356Z,0.90
2023-03-26T14:37:32.944Z,0.80
2023-03-26T14:40:22.225Z,0.80
2023-03-26T14:43:05.368Z,0.98
2023-03-26T14:46:04.476Z,0.70
2023-03-26T14:49:04.009Z,0.70
2023-03-26T14:52:07.968Z,0.80
2023-03-26T14:54:43.230Z,0.80
2023-03-26T14:58:03.839Z,0.70
2023-03-26T15:01:21.851Z,1.00
2023-03-26T15:04:57.439Z,1.93
2023-03-26T15:07:52.066Z,0.90
2023-03-26T15:11:21.042Z,0.93
2023-03-26T15:14:30.601Z,0.80
2023-03-26T15:17:49.304Z,1.00
2023-03-26T15:21:07.545Z,2.40
2023-03-26T15:24:36.797Z,1.50
2023-03-26T15:27:52.282Z,1.80
2023-03-26T15:31:09.868Z,1.20
2023-03-26T15:34:30.422Z,1.60
2023-03-26T15:37:41.804Z,6.63
2023-03-26T15:40:44.505Z,5.18
2023-03-26T15:43:15.741Z,7.93
2023-03-26T15:45:49.478Z,3.70
2023-03-26T15:48:40.967Z,6.10
2023-03-26T15:51:28.779Z,6.53
2023-03-26T15:54:10.489Z,5.32
2023-03-26T15:57:10.679Z,5.35
2023-03-26T15:59:57.471Z,1.15
2023-03-26T16:02:38.021Z,1.15
2023-03-26T16:05:33.479Z,1.20
2023-03-26T16:08:18.893Z,1.40
2023-03-26T16:10:54.164Z,1.23
2023-03-26T16:13:36.230Z,1.52
2023-03-26T16:16:46.522Z,1.90
2023-03-26T16:19:59.471Z,1.70
2023-03-26T16:22:46.442Z,1.70
2023-03-26T16:25:29.551Z,2.43
2023-03-26T16:28:32.546Z,1.80
2023-03-26T16:31:37.901Z,2.80
2023-03-26T16:34:38.969Z,6.63
2023-03-26T16:37:37.098Z,4.30
2023-03-26T16:40:34.952Z,4.30
2023-03-26T16:43:34.699Z,2.80
2023-03-26T16:46:17.611Z,2.07
2023-03-26T16:48:58.256Z,2.63
2023-03-26T16:51:51.409Z,3.50
2023-03-26T16:54:32.303Z,3.67
2023-03-26T16:57:17.377Z,4.00
2023-03-26T17:00:08.106Z,3.90
2023-03-26T17:02:53.833Z,5.60
2023-03-26T17:05:34.405Z,6.37
2023-03-26T17:08:16.909Z,3.10
2023-03-26T17:10:57.720Z,2.87
2023-03-26T17:13:38.112Z,2.40
2023-03-26T17:16:18.362Z,1.97
2023-03-26T17:19:00.695Z,2.23
2023-03-26T17:21:46.699Z,2.43
2023-03-26T17:24:30.527Z,2.90
2023-03-26T17:27:34.793Z,1.30
2023-03-26T17:30:25.728Z,2.23
2023-03-26T17:33:00.007Z,6.20
2023-03-26T17:35:44.628Z,5.10
2023-03-26T17:38:59.857Z,2.50
2023-03-26T17:41:57.713Z,4.37
2023-03-26T17:44:47.688Z,4.90
2023-03-26T17:47:30.768Z,3.10
2023-03-26T17:50:07.902Z,2.50
2023-03-26T17:52:56.582Z,2.80
2023-03-26T17:55:30.968Z,3.00
2023-03-26T17:58:02.317Z,2.80
2023-03-26T18:00:36.146Z,2.83
2023-03-26T18:03:13.836Z,3.80
2023-03-26T18:05:42.464Z,2.50
2023-03-26T18:08:55.632Z,2.90
2023-03-26T18:12:01.746Z,2.60
2023-03-26T18:15:08.169Z,2.83
2023-03-26T18:17:44.690Z,2.20
2023-03-26T18:20:23.439Z,2.83
2023-03-26T18:22:53.579Z,2.37
2023-03-26T18:25:32.617Z,5.43
2023-03-26T18:28:02.068Z,2.00
2023-03-26T18:30:31.237Z,2.17
2023-03-26T18:33:05.199Z,2.27
2023-03-26T18:35:44.516Z,2.00
2023-03-26T18:38:36.076Z,2.03
2023-03-26T18:41:18.202Z,4.93
2023-03-26T18:43:46.970Z,1.80
2023-03-26T18:46:17.080Z,1.80
2023-03-26T18:48:48.332Z,1.47
2023-03-26T18:51:23.303Z,1.20
2023-03-26T18:53:56.585Z,1.33
2023-03-26T18:56:35.940Z,1.00
2023-03-26T18:59:08.133Z,1.00
2023-03-26T19:01:39.002Z,1.10
2023-03-26T19:04:09.409Z,1.23
2023-03-26T19:06:43.102Z,0.97
2023-03-26T19:09:30.344Z,1.13
2023-03-26T19:12:09.232Z,1.07
2023-03-26T19:14:57.002Z,1.10
2023-03-26T19:17:31.576Z,5.60
2023-03-26T19:20:00.650Z,1.80
2023-03-26T19:22:31.505Z,1.47
2023-03-26T19:25:04.545Z,1.30
2023-03-26T19:27:38.427Z,1.43
2023-03-26T19:30:09.186Z,1.50
2023-03-26T19:32:37.621Z,1.60
2023-03-26T19:35:21.523Z,1.67
2023-03-26T19:37:55.159Z,1.87
2023-03-26T19:40:30.605Z,1.00
2023-03-26T19:43:01.031Z,1.40
2023-03-26T19:45:34.998Z,1.17
2023-03-26T19:48:15.385Z,1.43
2023-03-26T19:50:54.628Z,1.00
2023-03-26T19:53:32.572Z,1.00
2023-03-26T19:56:13.700Z,1.07
2023-03-26T19:58:44.333Z,0.87
2023-03-26T20:01:19.010Z,0.63
2023-03-26T20:03:50.282Z,0.67
2023-03-26T20:06:30.737Z,0.60
2023-03-26T20:09:04.313Z,0.40
2023-03-26T20:11:38.752Z,0.60
2023-03-26T20:14:15.347Z,0.83
2023-03-26T20:16:46.065Z,0.60
2023-03-26T20:19:15.762Z,0.60
2023-03-26T20:21:45.933Z,0.77
2023-03-26T20:24:17.220Z,0.80
2023-03-26T20:26:46.387Z,0.73
2023-03-26T20:29:16.866Z,0.60
2023-03-26T20:31:45.952Z,0.50
2023-03-26T20:34:19.166Z,0.50
2023-03-26T20:36:54.210Z,0.65
2023-03-26T20:39:23.456Z,0.40
2023-03-26T20:41:56.318Z,0.40
2023-03-26T20:44:27.307Z,0.70
2023-03-26T20:46:56.526Z,0.40
2023-03-26T20:49:25.154Z,0.43
2023-03-26T20:51:53.934Z,0.50
2023-03-26T20:54:25.662Z,0.60
2023-03-26T20:56:55.186Z,0.50
2023-03-26T20:59:27.982Z,0.50
2023-03-26T21:01:59.380Z,0.60
2023-03-26T21:04:28.892Z,0.80
2023-03-26T21:07:07.129Z,0.70
2023-03-26T21:09:40.707Z,0.60
2023-03-26T21:12:17.002Z,0.60
2023-03-26T21:14:47.784Z,0.73
2023-03-26T21:17:20.856Z,0.73
2023-03-26T21:19:50.898Z,0.70
2023-03-26T21:22:34.338Z,0.70
2023-03-26T21:25:26.291Z,0.53
2023-03-26T21:28:12.621Z,0.60
2023-03-26T21:30:44.485Z,0.50
2023-03-26T21:33:13.825Z,0.70
2023-03-26T21:35:44.791Z,0.97
2023-03-26T21:38:14.187Z,0.70
2023-03-26T21:40:52.949Z,0.90
2023-03-26T21:43:27.421Z,0.70
2023-03-26T21:45:59.309Z,0.90
2023-03-26T21:48:30.227Z,0.60
2023-03-26T21:51:02.491Z,0.60
2023-03-26T21:53:31.915Z,0.80
2023-03-26T21:56:24.639Z,0.60
2023-03-26T21:59:00.313Z,0.70
2023-03-26T22:01:44.091Z,0.90
2023-03-26T22:04:21.014Z,0.83
2023-03-26T22:06:58.437Z,0.90
2023-03-26T22:12:02.210Z,0.70
2023-03-26T22:14:30.709Z,0.77
2023-03-26T22:17:00.840Z,0.70
2023-03-26T22:19:30.496Z,0.70
2023-03-26T22:22:00.155Z,0.60
2023-03-26T22:24:28.737Z,0.63
2023-03-26T22:26:57.741Z,0.70
2023-03-26T22:29:27.380Z,0.77
2023-03-26T22:31:56.117Z,0.80
2023-03-26T22:34:28.147Z,0.90
2023-03-26T22:36:56.484Z,0.60
2023-03-26T22:39:27.434Z,0.70
2023-03-26T22:41:56.308Z,0.70
2023-03-26T22:44:25.506Z,0.90
2023-03-26T22:46:55.088Z,0.80
2023-03-26T22:49:26.204Z,0.80
2023-03-26T22:51:55.036Z,0.90
2023-03-26T22:54:23.459Z,1.00
2023-03-26T22:56:53.322Z,0.83
2023-03-26T22:59:21.731Z,0.83
2023-03-26T23:01:50.818Z,0.90
2023-03-26T23:04:30.893Z,1.00
2023-03-26T23:07:02.003Z,1.00
2023-03-26T23:09:31.602Z,1.00
2023-03-26T23:12:00.145Z,1.30
2023-03-26T23:14:28.728Z,0.90
2023-03-26T23:16:57.611Z,1.10
2023-03-26T23:19:26.542Z,0.90
2023-03-26T23:21:55.339Z,0.93
2023-03-26T23:24:26.455Z,1.00
2023-03-26T23:26:55.241Z,1.00
2023-03-26T23:29:23.708Z,1.00
2023-03-26T23:31:54.710Z,0.93
2023-03-26T23:34:24.046Z,1.10
2023-03-26T23:36:53.938Z,1.17
2023-03-26T23:39:25.531Z,1.13
2023-03-26T23:41:54.010Z,1.13
2023-03-26T23:44:22.385Z,1.10
2023-03-26T23:46:57.905Z,1.10
2023-03-26T23:49:26.799Z,1.30
2023-03-26T23:51:55.275Z,1.23
2023-03-26T23:54:30.115Z,1.50
2023-03-26T23:56:59.506Z,1.70
2023-03-26T23:59:28.175Z,1.30
